sensor_id;sensor_type;location;lat;lon;timestamp;pressure;altitude;pressure_sealevel;temperature;humidity
56174;BME280;42058;52.308;20.924;2023-04-01T01:05:15;98659.16;;;10.35;100.00
56174;BME280;42058;52.308;20.924;2023-04-01T01:07:56;98654.02;;;10.33;100.00
56174;BME280;42058;52.308;20.924;2023-04-01T01:10:33;98658.61;;;10.32;100.00
56174;BME280;42058;52.308;20.924;2023-04-01T01:13:26;98653.80;;;10.30;100.00
56174;BME280;42058;52.308;20.924;2023-04-01T01:16:22;98654.39;;;10.29;100.00
56174;BME280;42058;52.308;20.924;2023-04-01T01:22:35;98658.81;;;10.25;100.00
56174;BME280;42058;52.308;20.924;2023-04-01T01:27:29;98661.06;;;10.22;100.00
56174;BME280;42058;52.308;20.924;2023-04-01T01:30:13;98660.30;;;10.19;100.00
56174;BME280;42058;52.308;20.924;2023-04-01T01:33:06;98659.19;;;10.17;100.00
56174;BME280;42058;52.308;20.924;2023-04-01T01:35:40;98665.73;;;10.16;100.00
56174;BME280;42058;52.308;20.924;2023-04-01T01:38:15;98666.89;;;10.14;100.00
56174;BME280;42058;52.308;20.924;2023-04-01T01:40:49;98662.98;;;10.12;100.00
56174;BME280;42058;52.308;20.924;2023-04-01T01:43:26;98669.20;;;10.10;100.00
56174;BME280;42058;52.308;20.924;2023-04-01T01:45:57;98669.48;;;10.09;100.00
56174;BME280;42058;52.308;20.924;2023-04-01T01:48:27;98668.64;;;10.08;100.00
56174;BME280;42058;52.308;20.924;2023-04-01T01:50:55;98673.77;;;10.07;100.00
56174;BME280;42058;52.308;20.924;2023-04-01T01:53:21;98671.91;;;10.06;100.00
56174;BME280;42058;52.308;20.924;2023-04-01T01:55:48;98668.77;;;10.05;100.00
56174;BME280;42058;52.308;20.924;2023-04-01T01:58:29;98666.57;;;10.04;100.00
56174;BME280;42058;52.308;20.924;2023-04-01T02:00:59;98667.13;;;10.03;100.00
56174;BME280;42058;52.308;20.924;2023-04-01T02:03:30;98665.08;;;10.02;100.00
56174;BME280;42058;52.308;20.924;2023-04-01T02:05:59;98664.77;;;10.01;100.00
56174;BME280;42058;52.308;20.924;2023-04-01T02:08:42;98661.84;;;10.00;100.00
56174;BME280;42058;52.308;20.924;2023-04-01T02:11:17;98659.11;;;9.99;100.00
56174;BME280;42058;52.308;20.924;2023-04-01T02:13:54;98650.70;;;9.99;100.00
56174;BME280;42058;52.308;20.924;2023-04-01T02:16:36;98648.66;;;9.98;100.00
56174;BME280;42058;52.308;20.924;2023-04-01T02:19:06;98644.81;;;9.98;100.00
56174;BME280;42058;52.308;20.924;2023-04-01T02:21:37;98643.98;;;9.97;100.00
56174;BME280;42058;52.308;20.924;2023-04-01T02:24:08;98645.06;;;9.96;100.00
56174;BME280;42058;52.308;20.924;2023-04-01T02:26:36;98636.50;;;9.96;100.00
56174;BME280;42058;52.308;20.924;2023-04-01T02:29:04;98632.17;;;9.95;100.00
56174;BME280;42058;52.308;20.924;2023-04-01T02:31:33;98628.35;;;9.95;100.00
56174;BME280;42058;52.308;20.924;2023-04-01T02:34:03;98629.59;;;9.94;100.00
56174;BME280;42058;52.308;20.924;2023-04-01T02:36:30;98629.80;;;9.93;100.00
56174;BME280;42058;52.308;20.924;2023-04-01T02:38:58;98632.09;;;9.93;100.00
56174;BME280;42058;52.308;20.924;2023-04-01T02:41:28;98625.99;;;9.93;100.00
56174;BME280;42058;52.308;20.924;2023-04-01T02:43:55;98630.05;;;9.92;100.00
56174;BME280;42058;52.308;20.924;2023-04-01T02:46:23;98632.33;;;9.92;100.00
56174;BME280;42058;52.308;20.924;2023-04-01T02:48:50;98635.50;;;9.92;100.00
56174;BME280;42058;52.308;20.924;2023-04-01T02:51:16;98636.41;;;9.91;100.00
56174;BME280;42058;52.308;20.924;2023-04-01T02:53:44;98635.19;;;9.91;100.00
56174;BME280;42058;52.308;20.924;2023-04-01T02:56:11;98633.98;;;9.91;100.00
56174;BME280;42058;52.308;20.924;2023-04-01T02:58:37;98635.77;;;9.90;100.00
56174;BME280;42058;52.308;20.924;2023-04-01T03:01:03;98634.42;;;9.89;100.00
56174;BME280;42058;52.308;20.924;2023-04-01T03:03:30;98641.13;;;9.88;100.00
56174;BME280;42058;52.308;20.924;2023-04-01T03:05:56;98640.11;;;9.87;100.00
56174;BME280;42058;52.308;20.924;2023-04-01T03:08:24;98643.17;;;9.86;100.00
56174;BME280;42058;52.308;20.924;2023-04-01T03:10:51;98645.84;;;9.85;100.00
56174;BME280;42058;52.308;20.924;2023-04-01T03:13:17;98643.61;;;9.84;100.00
56174;BME280;42058;52.308;20.924;2023-04-01T03:15:43;98644.89;;;9.83;100.00
56174;BME280;42058;52.308;20.924;2023-04-01T03:18:10;98644.41;;;9.82;100.00
56174;BME280;42058;52.308;20.924;2023-04-01T03:20:36;98647.10;;;9.80;100.00
56174;BME280;42058;52.308;20.924;2023-04-01T03:23:02;98653.23;;;9.80;100.00
56174;BME280;42058;52.308;20.924;2023-04-01T03:25:29;98656.79;;;9.79;100.00
56174;BME280;42058;52.308;20.924;2023-04-01T03:27:57;98655.76;;;9.79;100.00
56174;BME280;42058;52.308;20.924;2023-04-01T03:30:26;98657.39;;;9.78;100.00
56174;BME280;42058;52.308;20.924;2023-04-01T03:32:53;98654.44;;;9.78;100.00
56174;BME280;42058;52.308;20.924;2023-04-01T03:35:19;98651.63;;;9.77;100.00
56174;BME280;42058;52.308;20.924;2023-04-01T03:37:46;98656.21;;;9.77;100.00
56174;BME280;42058;52.308;20.924;2023-04-01T03:40:12;98659.75;;;9.76;100.00
56174;BME280;42058;52.308;20.924;2023-04-01T03:42:39;98661.08;;;9.74;100.00
56174;BME280;42058;52.308;20.924;2023-04-01T03:45:06;98661.45;;;9.74;100.00
56174;BME280;42058;52.308;20.924;2023-04-01T03:47:32;98664.42;;;9.74;100.00
56174;BME280;42058;52.308;20.924;2023-04-01T03:49:59;98664.27;;;9.73;100.00
56174;BME280;42058;52.308;20.924;2023-04-01T03:52:25;98665.88;;;9.73;100.00
56174;BME280;42058;52.308;20.924;2023-04-01T03:54:52;98668.37;;;9.72;100.00
56174;BME280;42058;52.308;20.924;2023-04-01T03:57:18;98671.19;;;9.72;100.00
56174;BME280;42058;52.308;20.924;2023-04-01T03:59:45;98673.70;;;9.71;100.00
56174;BME280;42058;52.308;20.924;2023-04-01T04:02:12;98680.40;;;9.70;100.00
56174;BME280;42058;52.308;20.924;2023-04-01T04:04:38;98681.84;;;9.69;100.00
56174;BME280;42058;52.308;20.924;2023-04-01T04:07:05;98689.39;;;9.69;100.00
56174;BME280;42058;52.308;20.924;2023-04-01T04:09:42;98693.63;;;9.68;100.00
56174;BME280;42058;52.308;20.924;2023-04-01T04:12:09;98694.38;;;9.67;100.00
56174;BME280;42058;52.308;20.924;2023-04-01T04:14:35;98694.90;;;9.67;100.00
56174;BME280;42058;52.308;20.924;2023-04-01T04:17:02;98696.05;;;9.65;100.00
56174;BME280;42058;52.308;20.924;2023-04-01T04:19:32;98699.44;;;9.64;100.00
56174;BME280;42058;52.308;20.924;2023-04-01T04:22:00;98700.00;;;9.63;100.00
56174;BME280;42058;52.308;20.924;2023-04-01T04:24:27;98700.26;;;9.62;100.00
56174;BME280;42058;52.308;20.924;2023-04-01T04:27:02;98703.80;;;9.61;100.00
56174;BME280;42058;52.308;20.924;2023-04-01T04:29:29;98704.90;;;9.60;100.00
56174;BME280;42058;52.308;20.924;2023-04-01T04:31:56;98705.66;;;9.58;100.00
56174;BME280;42058;52.308;20.924;2023-04-01T04:34:22;98705.55;;;9.57;100.00
56174;BME280;42058;52.308;20.924;2023-04-01T04:36:49;98707.37;;;9.56;100.00
56174;BME280;42058;52.308;20.924;2023-04-01T04:39:16;98706.02;;;9.55;100.00
56174;BME280;42058;52.308;20.924;2023-04-01T04:41:43;98707.14;;;9.54;100.00
56174;BME280;42058;52.308;20.924;2023-04-01T04:44:09;98713.63;;;9.53;100.00
56174;BME280;42058;52.308;20.924;2023-04-01T04:46:36;98713.14;;;9.53;100.00
56174;BME280;42058;52.308;20.924;2023-04-01T04:49:13;98716.16;;;9.52;100.00
56174;BME280;42058;52.308;20.924;2023-04-01T04:51:39;98714.27;;;9.51;100.00
56174;BME280;42058;52.308;20.924;2023-04-01T04:54:06;98718.02;;;9.50;100.00
56174;BME280;42058;52.308;20.924;2023-04-01T04:56:45;98718.02;;;9.50;100.00
56174;BME280;42058;52.308;20.924;2023-04-01T04:59:11;98719.27;;;9.49;100.00
56174;BME280;42058;52.308;20.924;2023-04-01T05:01:42;98719.46;;;9.49;100.00
56174;BME280;42058;52.308;20.924;2023-04-01T05:04:09;98720.71;;;9.48;100.00
56174;BME280;42058;52.308;20.924;2023-04-01T05:06:35;98722.65;;;9.48;100.00
56174;BME280;42058;52.308;20.924;2023-04-01T05:09:02;98722.52;;;9.47;100.00
56174;BME280;42058;52.308;20.924;2023-04-01T05:11:29;98720.47;;;9.46;100.00
56174;BME280;42058;52.308;20.924;2023-04-01T05:13:55;98722.00;;;9.47;100.00
56174;BME280;42058;52.308;20.924;2023-04-01T05:16:22;98722.71;;;9.47;100.00
56174;BME280;42058;52.308;20.924;2023-04-01T05:18:48;98721.86;;;9.47;100.00
56174;BME280;42058;52.308;20.924;2023-04-01T05:21:15;98721.79;;;9.48;100.00
56174;BME280;42058;52.308;20.924;2023-04-01T05:23:42;98725.13;;;9.48;100.00
56174;BME280;42058;52.308;20.924;2023-04-01T05:26:13;98728.31;;;9.47;100.00
56174;BME280;42058;52.308;20.924;2023-04-01T05:28:40;98728.65;;;9.47;100.00
56174;BME280;42058;52.308;20.924;2023-04-01T05:31:07;98724.59;;;9.48;100.00
56174;BME280;42058;52.308;20.924;2023-04-01T05:33:37;98724.39;;;9.48;100.00
56174;BME280;42058;52.308;20.924;2023-04-01T05:36:12;98725.05;;;9.49;100.00
56174;BME280;42058;52.308;20.924;2023-04-01T05:38:40;98724.29;;;9.50;100.00
56174;BME280;42058;52.308;20.924;2023-04-01T05:41:08;98720.02;;;9.52;100.00
56174;BME280;42058;52.308;20.924;2023-04-01T05:43:38;98721.02;;;9.53;100.00
56174;BME280;42058;52.308;20.924;2023-04-01T05:46:24;98717.61;;;9.54;100.00
56174;BME280;42058;52.308;20.924;2023-04-01T05:49:03;98719.20;;;9.57;100.00
56174;BME280;42058;52.308;20.924;2023-04-01T05:51:30;98724.86;;;9.59;100.00
56174;BME280;42058;52.308;20.924;2023-04-01T05:53:56;98727.70;;;9.63;100.00
56174;BME280;42058;52.308;20.924;2023-04-01T05:56:22;98727.17;;;9.66;100.00
56174;BME280;42058;52.308;20.924;2023-04-01T05:58:52;98729.10;;;9.69;100.00
56174;BME280;42058;52.308;20.924;2023-04-01T06:01:19;98732.60;;;9.73;100.00
56174;BME280;42058;52.308;20.924;2023-04-01T06:03:45;98733.49;;;9.76;100.00
56174;BME280;42058;52.308;20.924;2023-04-01T06:06:23;98731.44;;;9.78;100.00
56174;BME280;42058;52.308;20.924;2023-04-01T06:08:51;98734.08;;;9.82;100.00
56174;BME280;42058;52.308;20.924;2023-04-01T06:11:38;98733.44;;;9.85;100.00
56174;BME280;42058;52.308;20.924;2023-04-01T06:14:23;98734.65;;;9.88;100.00
56174;BME280;42058;52.308;20.924;2023-04-01T06:17:04;98735.70;;;9.92;100.00
56174;BME280;42058;52.308;20.924;2023-04-01T06:33:07;98744.68;;;10.14;100.00
56174;BME280;42058;52.308;20.924;2023-04-01T06:35:56;98746.34;;;10.20;100.00
56174;BME280;42058;52.308;20.924;2023-04-01T06:38:33;98747.19;;;10.24;100.00
56174;BME280;42058;52.308;20.924;2023-04-01T06:44:04;98743.62;;;10.32;100.00
56174;BME280;42058;52.308;20.924;2023-04-01T06:50:26;98748.02;;;10.39;100.00
56174;BME280;42058;52.308;20.924;2023-04-01T06:53:28;98748.58;;;10.45;100.00
56174;BME280;42058;52.308;20.924;2023-04-01T06:56:18;98748.91;;;10.48;100.00
56174;BME280;42058;52.308;20.924;2023-04-01T06:59:09;98748.55;;;10.52;100.00
56174;BME280;42058;52.308;20.924;2023-04-01T07:01:46;98748.23;;;10.54;100.00
56174;BME280;42058;52.308;20.924;2023-04-01T07:04:19;98748.05;;;10.58;100.00
56174;BME280;42058;52.308;20.924;2023-04-01T07:06:52;98746.98;;;10.62;100.00
56174;BME280;42058;52.308;20.924;2023-04-01T07:09:24;98750.45;;;10.65;100.00
56174;BME280;42058;52.308;20.924;2023-04-01T07:12:32;98752.20;;;10.69;100.00
56174;BME280;42058;52.308;20.924;2023-04-01T07:15:18;98756.44;;;10.72;100.00
56174;BME280;42058;52.308;20.924;2023-04-01T07:17:47;98755.95;;;10.74;100.00
56174;BME280;42058;52.308;20.924;2023-04-01T07:20:23;98753.55;;;10.77;100.00
56174;BME280;42058;52.308;20.924;2023-04-01T07:22:56;98755.27;;;10.80;100.00
56174;BME280;42058;52.308;20.924;2023-04-01T07:25:36;98754.09;;;10.83;100.00
56174;BME280;42058;52.308;20.924;2023-04-01T07:28:30;98753.58;;;10.86;100.00
56174;BME280;42058;52.308;20.924;2023-04-01T07:31:13;98753.81;;;10.88;100.00
56174;BME280;42058;52.308;20.924;2023-04-01T07:34:04;98750.52;;;10.90;100.00
56174;BME280;42058;52.308;20.924;2023-04-01T07:36:42;98747.69;;;10.94;100.00
56174;BME280;42058;52.308;20.924;2023-04-01T07:42:35;98742.93;;;11.01;100.00
56174;BME280;42058;52.308;20.924;2023-04-01T07:45:24;98747.35;;;11.03;100.00
56174;BME280;42058;52.308;20.924;2023-04-01T07:48:33;98749.82;;;11.06;100.00
56174;BME280;42058;52.308;20.924;2023-04-01T07:51:12;98746.95;;;11.11;100.00
56174;BME280;42058;52.308;20.924;2023-04-01T07:54:10;98744.76;;;11.15;100.00
56174;BME280;42058;52.308;20.924;2023-04-01T07:59:41;98744.97;;;11.27;100.00
56174;BME280;42058;52.308;20.924;2023-04-01T08:08:06;98749.18;;;11.43;100.00
56174;BME280;42058;52.308;20.924;2023-04-01T08:11:11;98755.81;;;11.47;100.00
56174;BME280;42058;52.308;20.924;2023-04-01T08:14:24;98759.58;;;11.48;100.00
56174;BME280;42058;52.308;20.924;2023-04-01T08:20:02;98762.48;;;11.53;100.00
56174;BME280;42058;52.308;20.924;2023-04-01T08:22:41;98761.52;;;11.58;100.00
56174;BME280;42058;52.308;20.924;2023-04-01T08:25:27;98762.09;;;11.63;100.00
56174;BME280;42058;52.308;20.924;2023-04-01T08:28:00;98758.70;;;11.67;100.00
56174;BME280;42058;52.308;20.924;2023-04-01T08:33:15;98759.54;;;11.80;100.00
56174;BME280;42058;52.308;20.924;2023-04-01T08:35:50;98756.08;;;11.85;100.00
56174;BME280;42058;52.308;20.924;2023-04-01T08:38:30;98758.82;;;11.89;100.00
56174;BME280;42058;52.308;20.924;2023-04-01T08:41:01;98762.16;;;11.89;100.00
56174;BME280;42058;52.308;20.924;2023-04-01T08:46:56;98767.38;;;11.87;100.00
56174;BME280;42058;52.308;20.924;2023-04-01T08:53:03;98771.66;;;11.86;100.00
56174;BME280;42058;52.308;20.924;2023-04-01T08:55:37;98773.51;;;11.84;100.00
56174;BME280;42058;52.308;20.924;2023-04-01T08:58:32;98775.15;;;11.83;100.00
56174;BME280;42058;52.308;20.924;2023-04-01T09:04:59;98775.69;;;11.80;100.00
56174;BME280;42058;52.308;20.924;2023-04-01T09:07:48;98777.20;;;11.78;100.00
56174;BME280;42058;52.308;20.924;2023-04-01T09:22:19;98782.06;;;11.82;100.00
56174;BME280;42058;52.308;20.924;2023-04-01T09:36:17;98788.77;;;11.85;100.00
56174;BME280;42058;52.308;20.924;2023-04-01T09:38:59;98795.27;;;11.85;100.00
56174;BME280;42058;52.308;20.924;2023-04-01T09:41:39;98795.55;;;11.86;100.00
56174;BME280;42058;52.308;20.924;2023-04-01T09:50:06;98802.89;;;11.84;100.00
56174;BME280;42058;52.308;20.924;2023-04-01T09:52:56;98802.98;;;11.82;100.00
56174;BME280;42058;52.308;20.924;2023-04-01T09:56:01;98804.27;;;11.81;100.00
56174;BME280;42058;52.308;20.924;2023-04-01T10:04:50;98799.41;;;11.83;100.00
56174;BME280;42058;52.308;20.924;2023-04-01T10:13:12;98806.39;;;11.90;100.00
56174;BME280;42058;52.308;20.924;2023-04-01T10:21:21;98809.81;;;11.98;100.00
56174;BME280;42058;52.308;20.924;2023-04-01T10:24:11;98810.08;;;11.99;100.00
56174;BME280;42058;52.308;20.924;2023-04-01T10:27:16;98809.55;;;12.02;100.00
56174;BME280;42058;52.308;20.924;2023-04-01T10:42:48;98803.22;;;12.32;100.00
56174;BME280;42058;52.308;20.924;2023-04-01T10:48:56;98803.48;;;12.31;100.00
56174;BME280;42058;52.308;20.924;2023-04-01T10:52:05;98803.40;;;12.29;100.00
56174;BME280;42058;52.308;20.924;2023-04-01T10:55:24;98808.51;;;12.26;100.00
56174;BME280;42058;52.308;20.924;2023-04-01T11:11:55;98819.71;;;12.16;100.00
56174;BME280;42058;52.308;20.924;2023-04-01T11:20:15;98828.45;;;12.19;100.00
56174;BME280;42058;52.308;20.924;2023-04-01T11:26:05;98830.23;;;12.21;100.00
56174;BME280;42058;52.308;20.924;2023-04-01T11:32:02;98824.34;;;12.26;100.00
56174;BME280;42058;52.308;20.924;2023-04-01T11:37:12;98825.01;;;12.29;100.00
56174;BME280;42058;52.308;20.924;2023-04-01T11:43:36;98829.27;;;12.32;100.00
56174;BME280;42058;52.308;20.924;2023-04-01T11:55:16;98832.13;;;12.43;100.00
56174;BME280;42058;52.308;20.924;2023-04-01T12:03:54;98831.99;;;12.57;100.00
56174;BME280;42058;52.308;20.924;2023-04-01T12:06:44;98831.33;;;12.59;100.00
56174;BME280;42058;52.308;20.924;2023-04-01T12:12:39;98828.51;;;12.59;100.00
56174;BME280;42058;52.308;20.924;2023-04-01T12:15:53;98830.09;;;12.59;100.00
56174;BME280;42058;52.308;20.924;2023-04-01T12:20:57;98832.29;;;12.61;100.00
56174;BME280;42058;52.308;20.924;2023-04-01T12:23:56;98829.96;;;12.62;100.00
56174;BME280;42058;52.308;20.924;2023-04-01T12:32:34;98841.44;;;12.61;100.00
56174;BME280;42058;52.308;20.924;2023-04-01T12:41:23;98848.48;;;12.64;100.00
56174;BME280;42058;52.308;20.924;2023-04-01T12:43:59;98852.67;;;12.64;100.00
56174;BME280;42058;52.308;20.924;2023-04-01T12:52:06;98851.88;;;12.66;100.00
56174;BME280;42058;52.308;20.924;2023-04-01T13:17:16;98883.52;;;12.21;100.00
56174;BME280;42058;52.308;20.924;2023-04-01T13:25:30;98887.32;;;12.14;100.00
56174;BME280;42058;52.308;20.924;2023-04-01T13:28:10;98890.33;;;12.13;100.00
56174;BME280;42058;52.308;20.924;2023-04-01T13:42:11;98902.89;;;12.11;100.00
56174;BME280;42058;52.308;20.924;2023-04-01T13:44:51;98909.09;;;12.10;100.00
56174;BME280;42058;52.308;20.924;2023-04-01T14:01:17;98931.48;;;11.91;100.00
56174;BME280;42058;52.308;20.924;2023-04-01T14:04:02;98938.73;;;11.89;100.00
56174;BME280;42058;52.308;20.924;2023-04-01T14:06:33;98944.88;;;11.86;100.00
56174;BME280;42058;52.308;20.924;2023-04-01T14:12:09;98948.02;;;11.77;100.00
56174;BME280;42058;52.308;20.924;2023-04-01T14:20:26;98956.63;;;11.67;100.00
56174;BME280;42058;52.308;20.924;2023-04-01T14:23:23;98957.98;;;11.62;100.00
56174;BME280;42058;52.308;20.924;2023-04-01T14:28:48;98961.53;;;11.55;100.00
56174;BME280;42058;52.308;20.924;2023-04-01T14:31:27;98958.52;;;11.52;100.00
56174;BME280;42058;52.308;20.924;2023-04-01T14:34:38;98961.63;;;11.50;100.00
56174;BME280;42058;52.308;20.924;2023-04-01T14:50:54;98981.51;;;11.15;100.00
56174;BME280;42058;52.308;20.924;2023-04-01T14:55:53;98991.70;;;11.08;100.00
56174;BME280;42058;52.308;20.924;2023-04-01T14:58:23;98992.95;;;11.05;100.00
56174;BME280;42058;52.308;20.924;2023-04-01T15:09:21;99006.90;;;10.96;100.00
56174;BME280;42058;52.308;20.924;2023-04-01T15:18:09;99015.89;;;10.91;100.00
56174;BME280;42058;52.308;20.924;2023-04-01T15:20:50;99018.77;;;10.90;100.00
56174;BME280;42058;52.308;20.924;2023-04-01T15:31:42;99046.35;;;10.79;100.00
56174;BME280;42058;52.308;20.924;2023-04-01T15:37:37;99048.44;;;10.72;100.00
56174;BME280;42058;52.308;20.924;2023-04-01T15:40:20;99053.52;;;10.69;100.00
56174;BME280;42058;52.308;20.924;2023-04-01T15:43:15;99053.44;;;10.67;100.00
56174;BME280;42058;52.308;20.924;2023-04-01T15:51:38;99062.36;;;10.64;100.00
56174;BME280;42058;52.308;20.924;2023-04-01T15:57:20;99070.08;;;10.61;100.00
56174;BME280;42058;52.308;20.924;2023-04-01T16:03:09;99078.86;;;10.59;100.00
56174;BME280;42058;52.308;20.924;2023-04-01T16:11:50;99094.56;;;10.54;100.00
56174;BME280;42058;52.308;20.924;2023-04-01T16:20:18;99116.39;;;10.45;100.00
56174;BME280;42058;52.308;20.924;2023-04-01T16:23:02;99120.77;;;10.41;100.00
56174;BME280;42058;52.308;20.924;2023-04-01T16:25:39;99120.39;;;10.38;100.00
56174;BME280;42058;52.308;20.924;2023-04-01T16:31:15;99131.80;;;10.34;100.00
56174;BME280;42058;52.308;20.924;2023-04-01T16:33:55;99135.23;;;10.31;100.00
56174;BME280;42058;52.308;20.924;2023-04-01T16:36:28;99135.17;;;10.29;100.00
56174;BME280;42058;52.308;20.924;2023-04-01T16:47:26;99149.72;;;10.25;100.00
56174;BME280;42058;52.308;20.924;2023-04-01T16:53:08;99161.74;;;10.22;100.00
56174;BME280;42058;52.308;20.924;2023-04-01T16:55:43;99170.39;;;10.21;100.00
56174;BME280;42058;52.308;20.924;2023-04-01T16:58:20;99177.14;;;10.19;100.00
56174;BME280;42058;52.308;20.924;2023-04-01T17:00:49;99183.78;;;10.15;100.00
56174;BME280;42058;52.308;20.924;2023-04-01T17:03:29;99189.87;;;10.12;100.00
56174;BME280;42058;52.308;20.924;2023-04-01T17:14:54;99207.48;;;9.98;100.00
56174;BME280;42058;52.308;20.924;2023-04-01T17:17:34;99209.57;;;9.95;100.00
56174;BME280;42058;52.308;20.924;2023-04-01T17:23:13;99215.34;;;9.87;100.00
56174;BME280;42058;52.308;20.924;2023-04-01T17:26:01;99223.03;;;9.83;100.00
56174;BME280;42058;52.308;20.924;2023-04-01T17:28:51;99223.56;;;9.78;100.00
56174;BME280;42058;52.308;20.924;2023-04-01T17:31:40;99233.73;;;9.74;100.00
56174;BME280;42058;52.308;20.924;2023-04-01T17:42:46;99255.33;;;9.56;100.00
56174;BME280;42058;52.308;20.924;2023-04-01T17:45:36;99262.44;;;9.54;100.00
56174;BME280;42058;52.308;20.924;2023-04-01T17:59:44;99285.89;;;9.40;100.00
56174;BME280;42058;52.308;20.924;2023-04-01T18:05:41;99295.46;;;9.33;100.00
56174;BME280;42058;52.308;20.924;2023-04-01T18:08:47;99295.84;;;9.28;100.00
56174;BME280;42058;52.308;20.924;2023-04-01T18:17:29;99312.70;;;9.18;100.00
56174;BME280;42058;52.308;20.924;2023-04-01T18:25:47;99325.90;;;9.11;100.00
56174;BME280;42058;52.308;20.924;2023-04-01T18:28:37;99329.30;;;9.09;100.00
56174;BME280;42058;52.308;20.924;2023-04-01T18:31:15;99334.48;;;9.06;100.00
56174;BME280;42058;52.308;20.924;2023-04-01T18:36:43;99342.02;;;9.01;100.00
56174;BME280;42058;52.308;20.924;2023-04-01T18:39:23;99351.19;;;8.99;100.00
56174;BME280;42058;52.308;20.924;2023-04-01T18:42:33;99353.56;;;8.96;100.00
56174;BME280;42058;52.308;20.924;2023-04-01T18:45:19;99355.41;;;8.93;100.00
56174;BME280;42058;52.308;20.924;2023-04-01T18:48:21;99358.65;;;8.91;100.00
56174;BME280;42058;52.308;20.924;2023-04-01T18:50:56;99361.73;;;8.88;100.00
56174;BME280;42058;52.308;20.924;2023-04-01T18:56:00;99366.70;;;8.86;100.00
56174;BME280;42058;52.308;20.924;2023-04-01T18:58:58;99367.23;;;8.86;100.00
56174;BME280;42058;52.308;20.924;2023-04-01T19:04:50;99378.55;;;8.82;100.00
56174;BME280;42058;52.308;20.924;2023-04-01T19:20:51;99392.44;;;8.76;100.00
56174;BME280;42058;52.308;20.924;2023-04-01T19:26:05;99400.60;;;8.73;100.00
56174;BME280;42058;52.308;20.924;2023-04-01T19:32:02;99410.35;;;8.68;100.00
56174;BME280;42058;52.308;20.924;2023-04-01T19:35:31;99407.64;;;8.66;100.00
56174;BME280;42058;52.308;20.924;2023-04-01T19:37:50;99413.25;;;8.65;100.00
56174;BME280;42058;52.308;20.924;2023-04-01T19:40:57;99416.62;;;8.64;100.00
56174;BME280;42058;52.308;20.924;2023-04-01T19:46:40;99428.23;;;8.62;100.00
56174;BME280;42058;52.308;20.924;2023-04-01T19:49:30;99433.22;;;8.59;100.00
56174;BME280;42058;52.308;20.924;2023-04-01T19:52:36;99437.10;;;8.58;100.00
56174;BME280;42058;52.308;20.924;2023-04-01T19:57:44;99444.34;;;8.56;100.00
56174;BME280;42058;52.308;20.924;2023-04-01T20:00:26;99452.10;;;8.55;100.00
56174;BME280;42058;52.308;20.924;2023-04-01T20:08:16;99457.72;;;8.53;100.00
56174;BME280;42058;52.308;20.924;2023-04-01T20:10:55;99460.23;;;8.51;100.00
56174;BME280;42058;52.308;20.924;2023-04-01T20:16:21;99460.73;;;8.48;100.00
56174;BME280;42058;52.308;20.924;2023-04-01T20:18:59;99465.83;;;8.46;100.00
56174;BME280;42058;52.308;20.924;2023-04-01T20:24:17;99472.89;;;8.44;100.00
56174;BME280;42058;52.308;20.924;2023-04-01T20:27:26;99471.88;;;8.43;100.00
56174;BME280;42058;52.308;20.924;2023-04-01T20:40:52;99488.10;;;8.26;100.00
56174;BME280;42058;52.308;20.924;2023-04-01T20:43:35;99490.95;;;8.24;100.00
56174;BME280;42058;52.308;20.924;2023-04-01T20:46:27;99491.20;;;8.23;100.00
56174;BME280;42058;52.308;20.924;2023-04-01T20:49:10;99492.16;;;8.20;100.00
56174;BME280;42058;52.308;20.924;2023-04-01T20:51:53;99492.05;;;8.18;100.00
56174;BME280;42058;52.308;20.924;2023-04-01T20:56:57;99497.91;;;8.15;100.00
56174;BME280;42058;52.308;20.924;2023-04-01T20:59:47;99501.63;;;8.13;100.00
56174;BME280;42058;52.308;20.924;2023-04-01T21:08:35;99517.34;;;8.08;100.00
56174;BME280;42058;52.308;20.924;2023-04-01T21:11:01;99526.80;;;8.07;100.00
56174;BME280;42058;52.308;20.924;2023-04-01T21:13:56;99528.95;;;8.05;100.00
56174;BME280;42058;52.308;20.924;2023-04-01T21:16:45;99526.34;;;8.05;100.00
56174;BME280;42058;52.308;20.924;2023-04-01T21:19:37;99529.48;;;8.05;100.00
56174;BME280;42058;52.308;20.924;2023-04-01T21:22:21;99532.26;;;8.06;100.00
56174;BME280;42058;52.308;20.924;2023-04-01T21:24:54;99531.77;;;8.04;100.00
56174;BME280;42058;52.308;20.924;2023-04-01T21:30:34;99544.42;;;8.02;100.00
56174;BME280;42058;52.308;20.924;2023-04-01T21:35:56;99547.43;;;8.01;100.00
56174;BME280;42058;52.308;20.924;2023-04-01T21:50:06;99568.55;;;7.95;100.00
56174;BME280;42058;52.308;20.924;2023-04-01T21:55:53;99570.73;;;7.92;100.00
56174;BME280;42058;52.308;20.924;2023-04-01T22:07:23;99585.88;;;7.82;100.00
56174;BME280;42058;52.308;20.924;2023-04-01T22:09:59;99587.67;;;7.80;100.00
56174;BME280;42058;52.308;20.924;2023-04-01T22:15:20;99591.50;;;7.75;100.00
56174;BME280;42058;52.308;20.924;2023-04-01T22:17:56;99589.98;;;7.73;100.00
56174;BME280;42058;52.308;20.924;2023-04-01T22:23:21;99599.58;;;7.67;100.00
56174;BME280;42058;52.308;20.924;2023-04-01T22:26:14;99605.20;;;7.65;100.00
56174;BME280;42058;52.308;20.924;2023-04-01T22:28:51;99604.22;;;7.63;100.00
56174;BME280;42058;52.308;20.924;2023-04-01T22:31:26;99609.30;;;7.62;100.00
56174;BME280;42058;52.308;20.924;2023-04-01T22:34:16;99608.98;;;7.61;100.00
56174;BME280;42058;52.308;20.924;2023-04-01T22:37:30;99612.83;;;7.61;100.00
56174;BME280;42058;52.308;20.924;2023-04-01T22:43:01;99621.61;;;7.59;100.00
56174;BME280;42058;52.308;20.924;2023-04-01T22:48:40;99624.13;;;7.56;100.00